Time;durP1;ratioP1;P1;durP2;ratioP2;P2;SDS_P1;SDS_P2;PMS_P1;PMS_P2;Temp;Humidity;BMP_temperature;BMP_pressure;BME280_temperature;BME280_humidity;BME280_pressure;Samples;Min_cycle;Max_cycle;Signal;HPM_P1;HPM_P2
2021/01/26 00:00:43;;;;;;;4.38;4.07;;;17.70;61.80;;;;;;5070960;28;20072;-26
2021/01/26 00:03:09;;;;;;;5.15;4.65;;;17.70;61.80;;;;;;5071946;28;20052;-27
2021/01/26 00:05:34;;;;;;;5.00;4.60;;;17.70;61.70;;;;;;5072624;28;20386;-30
2021/01/26 00:08:00;;;;;;;5.03;4.68;;;17.70;61.60;;;;;;5073116;28;20087;-29
2021/01/26 00:10:26;;;;;;;5.03;4.70;;;17.60;61.80;;;;;;5074899;28;20028;-26
2021/01/26 00:12:51;;;;;;;4.72;4.32;;;17.60;61.60;;;;;;5072959;28;20115;-27
2021/01/26 00:15:17;;;;;;;5.45;5.05;;;17.60;61.70;;;;;;5071673;28;20501;-34
2021/01/26 00:17:43;;;;;;;5.18;4.88;;;17.60;61.70;;;;;;5071437;28;20039;-29
2021/01/26 00:20:10;;;;;;;4.93;4.53;;;17.60;61.60;;;;;;5073820;28;20397;-26
2021/01/26 00:22:35;;;;;;;5.50;5.10;;;17.60;61.80;;;;;;5074356;28;20055;-28
2021/01/26 00:25:02;;;;;;;4.85;4.30;;;17.60;61.60;;;;;;5072126;28;20402;-26
2021/01/26 00:27:28;;;;;;;5.47;5.07;;;17.60;61.70;;;;;;5072189;28;20090;-23
2021/01/26 00:29:53;;;;;;;5.20;4.82;;;17.60;61.60;;;;;;5072458;28;20051;-25
2021/01/26 00:32:19;;;;;;;5.43;4.60;;;17.60;61.50;;;;;;5072662;28;20556;-28
2021/01/26 00:34:45;;;;;;;4.13;3.83;;;17.60;61.60;;;;;;5073981;28;20068;-28
2021/01/26 00:37:10;;;;;;;5.00;4.60;;;17.50;61.80;;;;;;5072377;28;20032;-28
2021/01/26 00:39:36;;;;;;;4.35;4.05;;;17.50;61.80;;;;;;5070583;28;20032;-26
2021/01/26 00:42:01;;;;;;;4.30;4.00;;;17.60;61.80;;;;;;5071335;28;20031;-25
2021/01/26 00:44:27;;;;;;;4.60;4.20;;;17.50;61.70;;;;;;5071312;28;20442;-25
2021/01/26 00:46:53;;;;;;;5.10;4.57;;;17.50;61.90;;;;;;5073202;28;20029;-24
2021/01/26 00:49:18;;;;;;;4.50;4.20;;;17.50;62.00;;;;;;5072840;28;20021;-26
2021/01/26 00:51:44;;;;;;;5.30;4.82;;;17.50;61.80;;;;;;5070990;28;20430;-29
2021/01/26 00:54:09;;;;;;;4.60;4.30;;;17.50;62.00;;;;;;5073150;28;20078;-25
2021/01/26 00:56:35;;;;;;;4.68;4.38;;;17.50;62.00;;;;;;5071310;28;20513;-25
2021/01/26 00:59:00;;;;;;;4.88;4.57;;;17.50;62.50;;;;;;5071373;28;20082;-31
2021/01/26 01:01:26;;;;;;;4.63;4.32;;;17.50;62.00;;;;;;5073591;28;20047;-25
2021/01/26 01:03:52;;;;;;;4.20;3.85;;;17.50;62.00;;;;;;5072009;28;20394;-25
2021/01/26 01:06:17;;;;;;;5.15;4.85;;;17.50;62.10;;;;;;5071608;28;20020;-24
2021/01/26 01:08:43;;;;;;;5.35;4.95;;;17.50;62.00;;;;;;5071645;28;20021;-27
2021/01/26 01:11:08;;;;;;;4.65;4.28;;;17.50;61.80;;;;;;5070130;28;20021;-27
2021/01/26 01:13:34;;;;;;;4.03;3.78;;;17.50;61.90;;;;;;5074114;28;20508;-29
2021/01/26 01:15:59;;;;;;;5.28;4.32;;;17.50;61.80;;;;;;5072256;28;20036;-27
2021/01/26 01:18:25;;;;;;;4.97;4.57;;;17.40;61.80;;;;;;5065763;28;20529;-24
2021/01/26 01:20:50;;;;;;;4.32;4.00;;;17.40;62.00;;;;;;5072030;28;20021;-25
2021/01/26 01:23:16;;;;;;;4.57;4.18;;;17.40;61.90;;;;;;5070273;28;20046;-29
2021/01/26 01:25:42;;;;;;;4.50;4.20;;;17.40;61.80;;;;;;5070171;28;20073;-25
2021/01/26 01:28:07;;;;;;;4.78;4.47;;;17.40;61.80;;;;;;5072809;28;20025;-28
2021/01/26 01:30:33;;;;;;;4.43;4.13;;;17.40;61.90;;;;;;5071482;28;20490;-28
2021/01/26 01:32:59;;;;;;;4.28;3.97;;;17.40;62.10;;;;;;5071487;28;20037;-24
2021/01/26 01:35:25;;;;;;;4.60;4.25;;;17.40;62.10;;;;;;5071615;28;20032;-24
2021/01/26 01:37:50;;;;;;;4.40;4.10;;;17.40;62.00;;;;;;5071142;28;20067;-30
2021/01/26 01:40:32;;;;;;;4.35;4.05;;;17.40;62.20;;;;;;5073544;28;20024;-25
2021/01/26 01:42:58;;;;;;;4.53;4.22;;;17.40;62.20;;;;;;5069834;28;20027;-29
2021/01/26 01:45:23;;;;;;;4.10;3.80;;;17.40;62.10;;;;;;5071202;28;20029;-28
2021/01/26 01:47:53;;;;;;;3.90;3.70;;;17.40;62.20;;;;;;5068707;28;20028;-23
2021/01/26 01:50:39;;;;;;;4.60;4.30;;;17.40;62.30;;;;;;5070055;28;20028;-26
2021/01/26 01:53:35;;;;;;;4.65;4.25;;;17.40;62.30;;;;;;5054529;28;20025;-25
2021/01/26 01:56:08;;;;;;;4.53;4.18;;;17.40;62.20;;;;;;5061287;28;20041;-24
2021/01/26 01:58:39;;;;;;;4.10;3.90;;;17.30;62.30;;;;;;5068082;28;20209;-27
2021/01/26 02:01:15;;;;;;;4.30;4.00;;;17.40;62.30;;;;;;5049625;28;20427;-23
2021/01/26 02:03:43;;;;;;;4.57;4.28;;;17.40;62.40;;;;;;5065862;28;20510;-29
2021/01/26 02:06:09;;;;;;;3.95;3.72;;;17.40;62.30;;;;;;5067844;28;20050;-26
2021/01/26 02:08:41;;;;;;;3.83;3.63;;;17.30;62.40;;;;;;5052295;28;20036;-24
2021/01/26 02:11:07;;;;;;;4.45;4.15;;;17.30;62.20;;;;;;5054915;28;20112;-26
2021/01/26 02:13:32;;;;;;;4.55;4.25;;;17.30;62.40;;;;;;5072769;28;20131;-23
2021/01/26 02:16:00;;;;;;;4.00;3.80;;;17.30;62.10;;;;;;5069386;28;20490;-25
2021/01/26 02:18:55;;;;;;;5.25;4.75;;;17.30;62.30;;;;;;5051583;28;20090;-30
2021/01/26 02:21:44;;;;;;;4.78;4.47;;;17.30;62.10;;;;;;5069531;28;20027;-29
2021/01/26 02:24:36;;;;;;;4.18;3.67;;;17.30;61.90;;;;;;5071455;28;20470;-27
2021/01/26 02:27:19;;;;;;;4.35;4.05;;;17.30;62.10;;;;;;5070354;28;20375;-28
2021/01/26 02:29:51;;;;;;;3.72;3.50;;;17.30;62.10;;;;;;5069906;28;20032;-32
2021/01/26 02:32:26;;;;;;;4.30;4.00;;;17.30;62.40;;;;;;5070310;28;20067;-27
2021/01/26 02:35:10;;;;;;;3.70;3.40;;;17.30;62.20;;;;;;5053981;28;20061;-23
2021/01/26 02:38:09;;;;;;;3.85;3.55;;;17.30;62.40;;;;;;5068568;28;20032;-24
2021/01/26 02:40:56;;;;;;;3.92;3.60;;;17.30;62.20;;;;;;5068710;28;20409;-32
2021/01/26 02:43:40;;;;;;;4.20;3.90;;;17.30;62.10;;;;;;5057537;28;20116;-23
2021/01/26 02:46:10;;;;;;;4.20;3.90;;;17.30;61.90;;;;;;5069888;28;20036;-32
2021/01/26 02:49:13;;;;;;;4.80;4.50;;;17.30;62.10;;;;;;5067713;28;20127;-26
2021/01/26 02:51:49;;;;;;;4.28;4.00;;;17.30;62.00;;;;;;5069069;28;20055;-27
2021/01/26 02:54:42;;;;;;;4.20;3.90;;;17.30;62.40;;;;;;5067350;28;20114;-28
2021/01/26 02:57:24;;;;;;;3.95;3.67;;;17.20;62.10;;;;;;5063122;28;20059;-26
2021/01/26 02:59:55;;;;;;;4.07;3.78;;;17.20;62.20;;;;;;5066241;28;20040;-27
2021/01/26 03:02:40;;;;;;;4.03;3.72;;;17.20;62.40;;;;;;5068925;28;20156;-24
2021/01/26 03:05:18;;;;;;;4.20;3.90;;;17.20;62.10;;;;;;5036684;28;20405;-23
2021/01/26 03:07:47;;;;;;;3.90;3.60;;;17.20;62.20;;;;;;5070048;28;20032;-25
2021/01/26 03:10:14;;;;;;;3.83;3.53;;;17.20;62.10;;;;;;5071860;28;20078;-24
2021/01/26 03:12:42;;;;;;;3.85;3.55;;;17.20;62.20;;;;;;5051106;28;20489;-25
2021/01/26 03:15:12;;;;;;;3.58;3.38;;;17.20;62.20;;;;;;5051847;28;20028;-24
2021/01/26 03:17:39;;;;;;;4.03;3.83;;;17.20;62.30;;;;;;5066146;28;20444;-32
2021/01/26 03:20:37;;;;;;;3.95;3.65;;;17.20;62.00;;;;;;5069100;28;20119;-26
2021/01/26 03:23:15;;;;;;;4.13;3.83;;;17.20;62.60;;;;;;5057932;28;20055;-30
2021/01/26 03:25:44;;;;;;;3.63;3.42;;;17.20;62.10;;;;;;5056042;28;20052;-27
2021/01/26 03:28:10;;;;;;;4.10;3.90;;;17.20;62.20;;;;;;5074196;28;20048;-27
2021/01/26 03:30:37;;;;;;;4.63;4.22;;;17.20;62.50;;;;;;5056048;28;20497;-34
2021/01/26 03:33:12;;;;;;;4.65;4.30;;;17.20;62.60;;;;;;5054212;28;20040;-30
2021/01/26 03:35:38;;;;;;;3.50;3.22;;;17.20;62.30;;;;;;5071682;28;20486;-28
2021/01/26 03:38:10;;;;;;;4.05;3.75;;;17.20;62.50;;;;;;5072713;28;20017;-27
2021/01/26 03:40:36;;;;;;;3.97;3.67;;;17.10;62.60;;;;;;5074618;28;20397;-26
2021/01/26 03:43:02;;;;;;;3.80;3.60;;;17.20;62.20;;;;;;5072533;28;20039;-28
2021/01/26 03:45:27;;;;;;;4.50;4.20;;;17.10;62.30;;;;;;5073663;28;20064;-27
2021/01/26 03:47:59;;;;;;;4.25;3.85;;;17.20;62.80;;;;;;5070495;28;20401;-24
2021/01/26 03:50:47;;;;;;;3.90;3.70;;;17.10;62.70;;;;;;5072349;28;20032;-32
2021/01/26 03:53:31;;;;;;;3.75;3.55;;;17.10;62.60;;;;;;5057617;28;20060;-24
2021/01/26 03:55:59;;;;;;;3.93;3.73;;;17.10;62.90;;;;;;5072236;28;20086;-24
2021/01/26 03:58:47;;;;;;;4.05;3.85;;;17.10;62.60;;;;;;5075272;28;20040;-26
2021/01/26 04:01:18;;;;;;;3.45;3.25;;;17.10;62.70;;;;;;5074724;28;20514;-26
2021/01/26 04:03:52;;;;;;;4.05;3.75;;;17.10;62.60;;;;;;5056033;28;20035;-25
2021/01/26 04:06:26;;;;;;;4.30;4.00;;;17.10;63.00;;;;;;5072034;28;20111;-25
2021/01/26 04:08:56;;;;;;;3.95;3.75;;;17.10;62.80;;;;;;5073214;28;20490;-27
2021/01/26 04:11:23;;;;;;;3.60;3.40;;;17.10;63.00;;;;;;5054217;28;20037;-24
2021/01/26 04:13:56;;;;;;;3.90;3.60;;;17.10;62.70;;;;;;5073153;28;20063;-28
2021/01/26 04:16:22;;;;;;;3.95;3.70;;;17.10;63.00;;;;;;5072292;28;20032;-24
2021/01/26 04:18:49;;;;;;;4.00;3.80;;;17.10;62.90;;;;;;5070869;28;20037;-27
2021/01/26 04:21:15;;;;;;;3.58;3.28;;;17.10;63.00;;;;;;5070616;28;20507;-23
2021/01/26 04:23:41;;;;;;;3.38;3.17;;;17.00;63.10;;;;;;5070213;28;20393;-26
2021/01/26 04:26:08;;;;;;;3.60;3.40;;;17.00;62.90;;;;;;5071882;28;20036;-27
2021/01/26 04:28:52;;;;;;;3.83;3.58;;;17.10;63.40;;;;;;5057388;28;20429;-27
2021/01/26 04:31:19;;;;;;;3.55;3.35;;;17.10;62.90;;;;;;5071599;28;20119;-25
2021/01/26 04:33:44;;;;;;;3.25;3.05;;;17.10;63.10;;;;;;5071631;28;20037;-26
2021/01/26 04:36:11;;;;;;;3.25;3.05;;;17.10;63.30;;;;;;5071156;28;20375;-25
2021/01/26 04:38:37;;;;;;;3.28;3.08;;;17.00;63.10;;;;;;5071309;28;20131;-30
2021/01/26 04:41:14;;;;;;;3.05;2.85;;;17.00;63.20;;;;;;5056731;28;20534;-31
2021/01/26 04:44:07;;;;;;;3.25;3.05;;;17.00;63.20;;;;;;5069369;28;20527;-25
2021/01/26 04:47:04;;;;;;;3.83;3.45;;;17.00;63.30;;;;;;5069408;28;20025;-24
2021/01/26 04:49:36;;;;;;;3.28;2.97;;;17.00;63.10;;;;;;5062897;28;20513;-24
2021/01/26 04:52:21;;;;;;;3.03;2.83;;;17.00;63.30;;;;;;5072921;28;20447;-23
2021/01/26 04:55:27;;;;;;;3.00;2.80;;;17.00;63.40;;;;;;5069767;28;20027;-28
2021/01/26 04:58:02;;;;;;;3.17;2.97;;;17.00;62.90;;;;;;5064159;28;20040;-24
2021/01/26 05:00:47;;;;;;;3.15;2.95;;;17.00;63.20;;;;;;5070638;28;20417;-24
2021/01/26 05:03:39;;;;;;;3.63;3.42;;;17.00;62.90;;;;;;5055570;28;20478;-26
2021/01/26 05:06:06;;;;;;;3.00;2.85;;;17.00;63.20;;;;;;5069981;28;20035;-28
2021/01/26 05:08:36;;;;;;;3.20;3.00;;;17.00;63.20;;;;;;5069574;28;20028;-27
2021/01/26 05:11:26;;;;;;;2.92;2.80;;;17.00;63.50;;;;;;5070092;28;20032;-26
2021/01/26 05:13:55;;;;;;;2.97;2.78;;;17.00;63.60;;;;;;5071155;28;20498;-25
2021/01/26 05:16:23;;;;;;;2.97;2.78;;;17.00;63.40;;;;;;5072028;28;20028;-25
2021/01/26 05:18:52;;;;;;;2.97;2.80;;;17.00;63.40;;;;;;5072909;28;20402;-28
2021/01/26 05:21:32;;;;;;;3.13;2.67;;;16.90;63.50;;;;;;5054290;28;20024;-25
2021/01/26 05:24:15;;;;;;;2.83;2.63;;;16.90;63.60;;;;;;5069234;28;20028;-24
2021/01/26 05:26:41;;;;;;;3.00;2.80;;;16.90;64.20;;;;;;5054429;28;20025;-25
2021/01/26 05:29:08;;;;;;;3.00;2.85;;;17.00;63.10;;;;;;5069048;28;20032;-25
2021/01/26 05:31:34;;;;;;;2.80;2.45;;;16.90;63.40;;;;;;5073792;28;20062;-27
2021/01/26 05:34:05;;;;;;;2.80;2.70;;;16.90;63.40;;;;;;5071730;28;20064;-31
2021/01/26 05:36:31;;;;;;;2.50;2.30;;;16.90;63.40;;;;;;5069473;28;20063;-24
2021/01/26 05:38:56;;;;;;;2.42;2.33;;;16.90;63.20;;;;;;5053661;28;20060;-24
2021/01/26 05:41:22;;;;;;;2.75;2.55;;;16.90;63.20;;;;;;5071627;28;20020;-26
2021/01/26 05:43:48;;;;;;;2.60;2.50;;;16.90;63.20;;;;;;5071584;28;20486;-28
2021/01/26 05:46:31;;;;;;;2.95;2.75;;;16.90;63.30;;;;;;5069714;28;20027;-24
2021/01/26 05:48:56;;;;;;;3.40;3.10;;;16.90;63.40;;;;;;5068895;28;20047;-23
2021/01/26 05:51:24;;;;;;;2.60;2.40;;;16.90;64.20;;;;;;5069875;28;20052;-24
2021/01/26 05:53:55;;;;;;;2.92;2.72;;;16.80;63.50;;;;;;5068200;28;20525;-23
2021/01/26 05:56:21;;;;;;;2.30;2.20;;;16.80;63.50;;;;;;5053878;28;20475;-26
2021/01/26 05:58:49;;;;;;;2.63;2.53;;;16.80;63.50;;;;;;5052975;28;20050;-27
2021/01/26 06:01:30;;;;;;;2.42;2.30;;;16.80;63.50;;;;;;5064766;28;20564;-31
2021/01/26 06:04:11;;;;;;;2.42;2.22;;;16.80;63.80;;;;;;5067284;28;20028;-26
2021/01/26 06:06:59;;;;;;;2.30;2.15;;;17.00;63.40;;;;;;5068409;28;20442;-29
2021/01/26 06:09:30;;;;;;;2.33;2.13;;;17.00;62.70;;;;;;5065833;28;20040;-31
2021/01/26 06:12:11;;;;;;;2.88;2.55;;;17.00;62.60;;;;;;5067566;28;20032;-28
2021/01/26 06:14:37;;;;;;;2.30;2.10;;;17.00;62.80;;;;;;5057313;28;20437;-27
2021/01/26 06:17:20;;;;;;;2.40;1.70;;;17.00;61.70;;;;;;5069786;28;20556;-27
2021/01/26 06:19:45;;;;;;;3.67;1.83;;;17.00;63.00;;;;;;5071047;28;20043;-29
2021/01/26 06:22:22;;;;;;;2.17;2.08;;;17.10;63.90;;;;;;5071724;28;20029;-29
2021/01/26 06:24:48;;;;;;;2.30;2.13;;;17.10;62.10;;;;;;5066359;28;20055;-31
2021/01/26 06:27:13;;;;;;;1.90;1.80;;;17.10;62.50;;;;;;5050176;28;20482;-29
2021/01/26 06:29:54;;;;;;;2.10;2.00;;;17.10;61.90;;;;;;5067873;28;20083;-26
2021/01/26 06:32:45;;;;;;;2.30;2.20;;;17.10;61.70;;;;;;5069214;28;20051;-26
2021/01/26 06:35:18;;;;;;;2.38;2.17;;;17.10;62.50;;;;;;5063806;28;20029;-33
2021/01/26 06:38:02;;;;;;;3.47;2.03;;;17.10;63.00;;;;;;5069904;28;20503;-33
2021/01/26 06:41:01;;;;;;;1.58;1.48;;;17.20;62.90;;;;;;5066394;28;20064;-30
2021/01/26 06:43:48;;;;;;;2.28;2.08;;;17.10;64.40;;;;;;5035237;28;20503;-30
2021/01/26 06:46:41;;;;;;;2.15;1.95;;;17.10;64.40;;;;;;5020319;28;20030;-25
2021/01/26 06:49:28;;;;;;;1.65;1.55;;;17.10;65.70;;;;;;5035984;28;20036;-26
2021/01/26 06:52:18;;;;;;;2.97;1.60;;;17.10;65.70;;;;;;5033588;28;20158;-24
2021/01/26 06:55:12;;;;;;;2.03;1.77;;;17.10;65.20;;;;;;5034201;28;20036;-32
2021/01/26 06:58:07;;;;;;;2.17;2.00;;;17.10;65.70;;;;;;5032988;28;20541;-26
2021/01/26 07:00:57;;;;;;;2.25;2.08;;;17.00;65.10;;;;;;5036033;28;20040;-25
2021/01/26 07:03:32;;;;;;;2.30;2.20;;;17.00;65.80;;;;;;5035735;28;20040;-28
2021/01/26 07:06:14;;;;;;;2.40;2.30;;;17.00;64.60;;;;;;5033314;28;20029;-27
2021/01/26 07:08:46;;;;;;;4.20;2.60;;;17.00;64.30;;;;;;5033050;28;20080;-25
2021/01/26 07:11:50;;;;;;;2.65;2.45;;;17.00;64.20;;;;;;5032933;28;20120;-27
2021/01/26 07:14:34;;;;;;;2.60;2.35;;;17.00;64.00;;;;;;5034905;28;20056;-26
2021/01/26 07:17:04;;;;;;;2.83;2.58;;;17.00;63.80;;;;;;5033028;28;20029;-30
2021/01/26 07:19:48;;;;;;;3.33;2.72;;;17.00;64.00;;;;;;5028666;28;20040;-27
2021/01/26 07:22:38;;;;;;;3.05;2.50;;;16.90;63.50;;;;;;5069709;28;20029;-26
2021/01/26 07:25:07;;;;;;;3.55;2.50;;;17.00;63.80;;;;;;5068556;28;20032;-30
2021/01/26 07:28:03;;;;;;;3.95;2.67;;;17.00;64.00;;;;;;5069851;28;20040;-25
2021/01/26 07:30:31;;;;;;;3.13;2.92;;;17.00;63.60;;;;;;5069495;28;20078;-28
2021/01/26 07:33:14;;;;;;;3.30;3.00;;;17.10;63.40;;;;;;5051537;28;20410;-26
2021/01/26 07:35:58;;;;;;;3.47;3.17;;;17.10;63.20;;;;;;5067603;28;20379;-26
2021/01/26 07:38:44;;;;;;;3.47;3.17;;;17.10;63.20;;;;;;5071880;28;20458;-26
2021/01/26 07:41:38;;;;;;;3.20;3.00;;;17.10;63.10;;;;;;5068691;28;20021;-23
2021/01/26 07:44:16;;;;;;;3.17;2.97;;;17.00;63.20;;;;;;5048056;28;20033;-25
2021/01/26 07:46:46;;;;;;;3.22;3.05;;;17.00;63.30;;;;;;5051026;28;20033;-25
2021/01/26 07:49:18;;;;;;;3.45;2.95;;;17.00;63.20;;;;;;5034646;28;20383;-27
2021/01/26 07:51:46;;;;;;;3.78;3.45;;;17.00;63.10;;;;;;5064332;28;20029;-27
2021/01/26 07:54:19;;;;;;;3.75;3.45;;;17.00;63.60;;;;;;5049883;28;20025;-26
2021/01/26 07:56:44;;;;;;;3.10;2.90;;;17.00;62.80;;;;;;5068616;28;20025;-26
2021/01/26 07:59:16;;;;;;;3.05;2.85;;;17.00;62.70;;;;;;5071788;28;20528;-23
2021/01/26 08:01:44;;;;;;;3.30;3.00;;;17.00;62.60;;;;;;5068550;28;20053;-30
2021/01/26 08:04:10;;;;;;;3.25;3.05;;;16.90;62.60;;;;;;5047826;28;20039;-27
2021/01/26 08:06:35;;;;;;;2.88;2.67;;;16.90;62.60;;;;;;5056377;28;20028;-27
2021/01/26 08:09:01;;;;;;;3.10;2.90;;;16.90;62.70;;;;;;5066848;28;20031;-24
2021/01/26 08:11:26;;;;;;;3.05;2.85;;;16.90;62.80;;;;;;5053672;28;20028;-31
2021/01/26 08:14:07;;;;;;;3.25;3.05;;;16.90;62.60;;;;;;5056412;28;20029;-22
2021/01/26 08:16:36;;;;;;;3.50;3.30;;;16.90;62.50;;;;;;5072842;28;20474;-29
2021/01/26 08:19:04;;;;;;;3.30;3.10;;;16.90;62.50;;;;;;5071609;28;20127;-28
2021/01/26 08:21:41;;;;;;;3.60;3.30;;;16.90;62.30;;;;;;5068601;28;20438;-24
2021/01/26 08:24:21;;;;;;;3.35;3.05;;;17.00;62.30;;;;;;5070168;28;20017;-25
2021/01/26 08:26:51;;;;;;;3.83;3.45;;;17.00;62.00;;;;;;5067029;28;20021;-26
2021/01/26 08:29:39;;;;;;;3.25;3.05;;;16.90;62.70;;;;;;5064171;28;20016;-26
2021/01/26 08:32:30;;;;;;;3.42;3.20;;;16.90;62.00;;;;;;5067568;28;20387;-29
2021/01/26 08:35:03;;;;;;;3.83;3.55;;;16.80;62.00;;;;;;5009346;28;20045;-29
2021/01/26 08:37:53;;;;;;;4.85;3.63;;;16.80;62.10;;;;;;5014905;28;20037;-30
2021/01/26 08:40:41;;;;;;;3.65;3.35;;;16.80;62.00;;;;;;5005771;28;20042;-36
2021/01/26 08:43:07;;;;;;;4.25;3.90;;;16.80;62.00;;;;;;5011835;28;20549;-31
2021/01/26 08:45:33;;;;;;;3.10;2.90;;;16.80;62.00;;;;;;5000085;28;20518;-31
2021/01/26 08:48:07;;;;;;;3.83;3.63;;;16.80;61.90;;;;;;5013627;28;20041;-28
2021/01/26 08:50:33;;;;;;;3.37;3.03;;;16.80;61.90;;;;;;5008768;28;20080;-26
2021/01/26 08:53:17;;;;;;;3.65;3.35;;;16.80;61.80;;;;;;5009323;28;20073;-33
2021/01/26 08:55:44;;;;;;;3.70;3.40;;;16.80;61.90;;;;;;5005616;28;20034;-34
2021/01/26 08:58:11;;;;;;;3.95;3.55;;;16.80;61.90;;;;;;5024232;28;20097;-34
2021/01/26 09:00:40;;;;;;;3.55;3.25;;;16.80;61.90;;;;;;5009427;28;20543;-27
2021/01/26 09:03:28;;;;;;;3.47;3.17;;;16.80;62.50;;;;;;5008141;28;20125;-29
2021/01/26 09:05:54;;;;;;;3.30;3.10;;;16.80;61.90;;;;;;5008935;28;20093;-25
2021/01/26 09:08:52;;;;;;;3.40;3.10;;;16.80;61.90;;;;;;5004909;28;20045;-28
2021/01/26 09:11:28;;;;;;;3.42;2.95;;;16.80;61.90;;;;;;4951936;28;20124;-27
2021/01/26 09:13:58;;;;;;;3.63;2.88;;;16.80;61.80;;;;;;4983337;28;20038;-28
2021/01/26 09:16:25;;;;;;;3.25;3.05;;;16.80;61.90;;;;;;4971560;28;20030;-28
2021/01/26 09:18:56;;;;;;;3.65;3.45;;;16.80;62.00;;;;;;4958050;28;20564;-28
2021/01/26 09:21:22;;;;;;;4.47;3.42;;;16.80;61.90;;;;;;4970685;28;20104;-26
2021/01/26 09:23:47;;;;;;;4.43;3.60;;;16.80;62.00;;;;;;4977556;28;20539;-31
2021/01/26 09:26:15;;;;;;;3.15;2.95;;;16.80;62.10;;;;;;4973148;28;20018;-28
2021/01/26 09:28:41;;;;;;;3.08;2.88;;;16.80;62.10;;;;;;4989897;28;20152;-36
2021/01/26 09:31:07;;;;;;;2.55;2.35;;;16.80;62.80;;;;;;4989187;28;20030;-27
2021/01/26 09:33:33;;;;;;;2.90;2.70;;;16.80;62.10;;;;;;4981636;28;20379;-28
2021/01/26 09:36:01;;;;;;;3.53;3.22;;;16.80;62.10;;;;;;4973943;28;20054;-35
2021/01/26 09:38:35;;;;;;;2.83;2.63;;;16.80;62.10;;;;;;4990716;28;20180;-35
2021/01/26 09:41:01;;;;;;;2.88;2.50;;;16.80;62.10;;;;;;4995848;28;20031;-32
2021/01/26 09:43:30;;;;;;;3.00;2.80;;;16.80;62.10;;;;;;4991046;28;20104;-30
2021/01/26 09:46:00;;;;;;;2.83;2.67;;;16.80;62.10;;;;;;5001669;28;20077;-30
2021/01/26 09:48:33;;;;;;;2.80;2.60;;;16.80;62.10;;;;;;5069995;28;20158;-35
2021/01/26 09:51:08;;;;;;;2.75;2.60;;;16.70;62.90;;;;;;5067689;28;20024;-27
2021/01/26 09:53:34;;;;;;;3.00;2.83;;;16.80;62.10;;;;;;5056554;28;20148;-29
2021/01/26 09:55:59;;;;;;;2.90;2.70;;;16.70;62.00;;;;;;5068588;28;20468;-33
2021/01/26 09:58:25;;;;;;;2.72;2.63;;;16.80;62.10;;;;;;5064001;28;20037;-32
2021/01/26 10:00:51;;;;;;;2.65;2.45;;;16.80;62.00;;;;;;5052242;28;20059;-34
2021/01/26 10:03:21;;;;;;;2.80;2.60;;;16.80;62.10;;;;;;5054147;28;20036;-29
2021/01/26 10:05:47;;;;;;;2.50;2.30;;;16.80;62.00;;;;;;5070200;28;20020;-29
2021/01/26 10:08:33;;;;;;;2.30;2.20;;;16.80;62.10;;;;;;5069748;28;20078;-27
2021/01/26 10:11:12;;;;;;;2.95;2.65;;;16.80;62.00;;;;;;5064651;28;20040;-29
2021/01/26 10:13:39;;;;;;;5.40;2.72;;;16.80;61.80;;;;;;5066826;28;20189;-28
2021/01/26 10:16:37;;;;;;;2.80;2.60;;;16.80;61.70;;;;;;5069473;28;20024;-28
2021/01/26 10:19:16;;;;;;;2.22;2.03;;;16.80;61.70;;;;;;5066240;28;20078;-25
2021/01/26 10:21:41;;;;;;;2.55;2.42;;;16.80;61.70;;;;;;5066341;28;20039;-29
2021/01/26 10:24:21;;;;;;;2.25;2.15;;;16.80;61.80;;;;;;5067492;28;20013;-31
2021/01/26 10:26:47;;;;;;;2.67;2.47;;;16.80;61.80;;;;;;5051095;28;20086;-31
2021/01/26 10:29:21;;;;;;;2.40;2.20;;;16.80;61.70;;;;;;5067017;28;20025;-30
2021/01/26 10:31:54;;;;;;;2.25;1.98;;;16.80;61.80;;;;;;5065999;28;20043;-30
2021/01/26 10:34:34;;;;;;;2.53;2.33;;;16.80;61.70;;;;;;5059530;28;20070;-30
2021/01/26 10:37:21;;;;;;;2.10;2.00;;;16.80;61.70;;;;;;5062282;28;20029;-28
2021/01/26 10:39:48;;;;;;;2.45;2.20;;;16.80;61.70;;;;;;5067110;28;20485;-30
2021/01/26 10:42:20;;;;;;;2.17;2.08;;;16.80;61.70;;;;;;5051253;28;20025;-28
2021/01/26 10:44:50;;;;;;;2.17;2.08;;;16.80;61.60;;;;;;5064464;28;20422;-30
2021/01/26 10:47:35;;;;;;;2.13;2.00;;;16.80;61.60;;;;;;5069505;28;20017;-27
2021/01/26 10:50:05;;;;;;;2.28;2.08;;;16.80;61.60;;;;;;5066331;28;20487;-30
2021/01/26 10:52:41;;;;;;;2.17;2.08;;;16.80;61.70;;;;;;5069037;28;20486;-32
2021/01/26 10:55:09;;;;;;;2.10;2.00;;;16.80;61.50;;;;;;5070777;28;20028;-29
2021/01/26 10:57:35;;;;;;;2.40;2.30;;;16.80;61.70;;;;;;5068284;28;20031;-36
2021/01/26 11:00:01;;;;;;;2.17;2.08;;;16.80;61.60;;;;;;5068885;28;20040;-28
2021/01/26 11:02:26;;;;;;;2.67;2.47;;;16.80;61.40;;;;;;5069783;28;20109;-26
2021/01/26 11:04:52;;;;;;;2.47;2.38;;;16.80;61.50;;;;;;5069803;28;20074;-27
2021/01/26 11:07:18;;;;;;;4.43;3.25;;;16.90;61.30;;;;;;4714901;28;9999957;-31
2021/01/26 11:09:44;;;;;;;2.90;2.70;;;16.90;61.10;;;;;;5065636;28;20398;-41
2021/01/26 11:12:10;;;;;;;4.40;4.00;;;16.90;61.00;;;;;;5068198;28;20028;-27
2021/01/26 11:14:35;;;;;;;4.32;4.03;;;16.90;61.10;;;;;;5070385;28;20124;-25
2021/01/26 11:17:01;;;;;;;5.78;4.18;;;16.90;60.90;;;;;;5070225;28;20112;-28
2021/01/26 11:19:29;;;;;;;4.82;4.53;;;16.90;60.90;;;;;;5069333;28;20037;-29
2021/01/26 11:21:54;;;;;;;4.28;3.97;;;16.90;61.00;;;;;;5062620;28;20039;-29
2021/01/26 11:24:20;;;;;;;4.00;3.70;;;16.90;60.70;;;;;;5065749;28;20398;-37
2021/01/26 11:26:45;;;;;;;12.02;7.35;;;16.90;60.60;;;;;;5065657;28;20136;-31
2021/01/26 11:29:11;;;;;;;10.80;8.00;;;16.90;60.30;;;;;;5066607;28;20052;-32
2021/01/26 11:31:37;;;;;;;13.85;9.35;;;16.90;60.40;;;;;;5066625;28;20043;-32
2021/01/26 11:34:02;;;;;;;16.92;11.15;;;16.90;60.00;;;;;;5066342;28;20179;-34
2021/01/26 11:36:28;;;;;;;16.67;12.25;;;16.90;60.20;;;;;;5062757;28;20025;-29
2021/01/26 11:38:53;;;;;;;16.58;12.10;;;16.90;60.40;;;;;;5065687;28;20123;-34
2021/01/26 11:41:19;;;;;;;21.25;13.70;;;16.90;60.00;;;;;;5066072;28;20052;-27
2021/01/26 11:43:45;;;;;;;19.45;13.80;;;16.80;60.50;;;;;;5074126;28;20056;-30
2021/01/26 11:46:10;;;;;;;20.17;13.45;;;16.90;61.10;;;;;;5072503;28;20032;-27
2021/01/26 11:48:36;;;;;;;24.80;14.65;;;16.90;61.30;;;;;;5074975;28;20028;-34
2021/01/26 11:51:02;;;;;;;18.50;13.68;;;16.90;61.40;;;;;;5070315;28;20032;-29
2021/01/26 11:53:28;;;;;;;18.92;12.55;;;16.90;61.50;;;;;;5072698;28;20504;-30
2021/01/26 11:55:57;;;;;;;16.80;11.02;;;16.90;61.30;;;;;;5069167;28;20052;-31
2021/01/26 11:58:22;;;;;;;17.10;12.77;;;17.00;61.30;;;;;;5064141;28;20036;-34
2021/01/26 12:00:48;;;;;;;18.95;13.02;;;17.00;61.30;;;;;;5065429;28;20049;-27
2021/01/26 12:03:13;;;;;;;20.02;13.52;;;17.00;61.20;;;;;;5064320;28;20554;-29
2021/01/26 12:05:39;;;;;;;26.02;14.32;;;17.00;61.30;;;;;;5063175;28;20094;-36
2021/01/26 12:08:06;;;;;;;24.60;16.15;;;17.00;61.40;;;;;;5062705;28;20036;-29
2021/01/26 12:10:32;;;;;;;25.48;17.27;;;17.00;61.60;;;;;;5066649;28;20024;-29
2021/01/26 12:12:57;;;;;;;24.15;18.30;;;16.90;61.50;;;;;;5067579;28;20044;-29
2021/01/26 12:15:29;;;;;;;25.77;19.67;;;16.90;61.70;;;;;;5059167;28;20033;-30
2021/01/26 12:17:54;;;;;;;25.35;18.58;;;16.90;61.70;;;;;;5066815;28;20024;-30
2021/01/26 12:20:20;;;;;;;23.88;19.63;;;16.90;62.00;;;;;;5063945;28;20090;-34
2021/01/26 12:22:45;;;;;;;23.35;17.92;;;16.90;61.70;;;;;;5042441;28;20044;-29
2021/01/26 12:25:12;;;;;;;22.23;17.13;;;16.90;61.70;;;;;;5026900;28;20045;-27
2021/01/26 12:27:38;;;;;;;21.55;16.77;;;17.00;61.70;;;;;;5024477;28;20088;-30
2021/01/26 12:30:05;;;;;;;24.73;17.60;;;17.00;61.70;;;;;;5026559;28;20045;-31
2021/01/26 12:32:32;;;;;;;21.25;16.95;;;17.00;61.50;;;;;;5023619;28;20137;-31
2021/01/26 12:34:59;;;;;;;22.85;16.40;;;17.00;61.40;;;;;;5025514;28;20104;-33
2021/01/26 12:37:24;;;;;;;21.73;17.02;;;17.00;61.40;;;;;;5024636;28;20133;-37
2021/01/26 12:39:50;;;;;;;21.52;15.98;;;17.00;61.30;;;;;;5021997;28;20140;-30
2021/01/26 12:42:15;;;;;;;21.42;16.25;;;17.00;61.30;;;;;;5021463;28;20045;-29
2021/01/26 12:44:41;;;;;;;21.75;16.15;;;17.00;61.20;;;;;;5029588;28;20041;-32
2021/01/26 12:47:06;;;;;;;19.50;15.57;;;17.00;61.20;;;;;;5025606;28;20446;-30
2021/01/26 12:49:32;;;;;;;18.85;15.60;;;17.00;61.20;;;;;;5031146;28;20103;-28
2021/01/26 12:51:58;;;;;;;18.90;15.20;;;17.00;61.20;;;;;;5027283;28;20059;-33
2021/01/26 12:54:23;;;;;;;18.05;14.15;;;17.00;61.10;;;;;;5027177;28;20124;-31
2021/01/26 12:56:49;;;;;;;19.27;14.95;;;17.00;61.10;;;;;;5025904;28;20053;-40
2021/01/26 12:59:15;;;;;;;16.20;13.80;;;17.00;61.10;;;;;;5028369;28;20037;-28
2021/01/26 13:01:40;;;;;;;19.05;14.70;;;17.00;61.20;;;;;;5029169;28;20053;-30
2021/01/26 13:04:06;;;;;;;20.17;14.80;;;17.00;61.00;;;;;;5031230;28;20598;-34
2021/01/26 13:06:31;;;;;;;17.20;13.80;;;17.00;61.00;;;;;;5028587;28;20045;-29
2021/01/26 13:08:57;;;;;;;14.05;12.52;;;17.00;60.90;;;;;;5029533;28;20060;-27